Terminal Aerodrome Forecast
Issued by NWS Caribou, ME

Home | Current Version | Previous Version | Text Only | Print | Product List | Glossary On
Versions: 1 2 3 4 5 6 7 8 9 10 11 12 13 14 15
000
FTUS41 KCAR 160525
TAFBGR
TAF
KBGR 160525Z 1606/1706 VRB03KT P6SM VCSH OVC040
     FM161000 31004KT P6SM BKN050
     FM170100 31005KT P6SM SCT090=

USA.gov is the U.S. government's official web portal to all federal, state and local government web resources and services.